Time;durP1;ratioP1;P1;durP2;ratioP2;P2;SDS_P1;SDS_P2;PMS_P1;PMS_P2;Temp;Humidity;BMP_temperature;BMP_pressure;BME280_temperature;BME280_humidity;BME280_pressure;Samples;Min_cycle;Max_cycle;Signal;HPM_P1;HPM_P2
2022/02/13 07:02:33;;;;;;;;;8.50;8.50;;;;;;;;5191090;27;77822;-75
2022/02/13 07:04:58;;;;;;;;;7.00;6.00;;;;;;;;5177747;27;20522;-76
2022/02/13 07:07:26;;;;;;;;;12.75;7.00;;;;;;;;5178646;27;11417;-74
2022/02/13 07:09:51;;;;;;;;;9.00;8.00;;;;;;;;5177106;27;21616;-75
2022/02/13 07:12:16;;;;;;;;;9.25;7.00;;;;;;;;5167418;27;21533;-76
2022/02/13 07:14:42;;;;;;;;;9.00;6.75;;;;;;;;5165795;27;9434;-74
2022/02/13 07:17:07;;;;;;;;;8.25;6.00;;;;;;;;5166956;27;10579;-75
2022/02/13 07:19:32;;;;;;;;;8.00;5.50;;;;;;;;5167309;27;13960;-74
2022/02/13 07:21:58;;;;;;;;;6.00;6.00;;;;;;;;5165641;27;10260;-75
2022/02/13 07:24:23;;;;;;;;;9.00;9.00;;;;;;;;5148797;27;13955;-76
2022/02/13 07:26:49;;;;;;;;;6.00;6.00;;;;;;;;5166878;27;8855;-76
2022/02/13 07:29:14;;;;;;;;;9.00;9.00;;;;;;;;5158280;27;8786;-76
2022/02/13 07:31:40;;;;;;;;;9.00;9.00;;;;;;;;5139924;27;8920;-75
2022/02/13 07:34:05;;;;;;;;;10.00;9.00;;;;;;;;5161849;27;8791;-77
2022/02/13 07:36:31;;;;;;;;;10.00;9.00;;;;;;;;5162080;27;16242;-76
2022/02/13 07:38:57;;;;;;;;;15.67;10.67;;;;;;;;5152504;27;8876;-76
2022/02/13 07:41:22;;;;;;;;;13.00;10.00;;;;;;;;5155535;27;21458;-76
2022/02/13 07:43:48;;;;;;;;;9.67;7.67;;;;;;;;5160404;27;12596;-75
2022/02/13 07:46:14;;;;;;;;;11.33;8.33;;;;;;;;5167668;27;22244;-76
2022/02/13 07:48:39;;;;;;;;;10.00;10.00;;;;;;;;5173732;27;21913;-75
2022/02/13 07:51:04;;;;;;;;;7.33;4.67;;;;;;;;5176153;27;21502;-76
2022/02/13 07:53:32;;;;;;;;;12.00;9.67;;;;;;;;5156850;27;24242;-76
2022/02/13 07:55:57;;;;;;;;;13.33;11.00;;;;;;;;5158801;27;21690;-75
2022/02/13 07:58:23;;;;;;;;;13.00;11.00;;;;;;;;5155529;27;21621;-75
2022/02/13 08:00:48;;;;;;;;;21.00;15.67;;;;;;;;5155027;27;8858;-75
2022/02/13 08:03:14;;;;;;;;;14.33;13.33;;;;;;;;5155433;27;13343;-74
2022/02/13 08:05:39;;;;;;;;;12.00;9.75;;;;;;;;5169698;27;13216;-74
2022/02/13 08:08:04;;;;;;;;;7.00;5.00;;;;;;;;5165746;27;21568;-75
2022/02/13 08:10:30;;;;;;;;;14.50;12.50;;;;;;;;5164668;27;22827;-74
2022/02/13 08:12:55;;;;;;;;;11.50;11.25;;;;;;;;5153383;27;22409;-74
2022/02/13 08:15:21;;;;;;;;;10.25;10.25;;;;;;;;5141233;27;12651;-75
2022/02/13 08:17:46;;;;;;;;;11.50;11.50;;;;;;;;5122984;27;12542;-75
2022/02/13 08:20:14;;;;;;;;;11.00;10.00;;;;;;;;5142053;27;11479;-77
2022/02/13 08:22:39;;;;;;;;;10.75;8.50;;;;;;;;5142073;27;10779;-81
2022/02/13 08:25:05;;;;;;;;;8.00;7.50;;;;;;;;5141401;27;21605;-78
2022/02/13 08:27:30;;;;;;;;;8.25;8.25;;;;;;;;5141453;27;21347;-82
2022/02/13 08:29:56;;;;;;;;;12.00;10.00;;;;;;;;5142179;27;10525;-87
2022/02/13 08:32:23;;;;;;;;;14.00;10.75;;;;;;;;5122821;27;25503;-86
2022/02/13 08:34:49;;;;;;;;;7.25;7.25;;;;;;;;5142574;27;11873;-84
2022/02/13 08:37:14;;;;;;;;;10.00;10.00;;;;;;;;5141167;27;23425;-80
2022/02/13 08:39:43;;;;;;;;;6.00;6.00;;;;;;;;5141806;27;22235;-80
2022/02/13 08:42:08;;;;;;;;;2.50;2.00;;;;;;;;5142501;27;23680;-82
2022/02/13 08:44:34;;;;;;;;;6.50;5.25;;;;;;;;5143205;27;11412;-81
2022/02/13 08:46:59;;;;;;;;;9.25;8.75;;;;;;;;5141463;27;11339;-79
2022/02/13 08:49:33;;;;;;;;;6.00;5.00;;;;;;;;5141060;27;11438;-85
2022/02/13 08:51:59;;;;;;;;;8.25;4.00;;;;;;;;5122989;27;11637;-91
2022/02/13 08:54:24;;;;;;;;;10.67;9.33;;;;;;;;5140213;27;11409;-84
2022/02/13 08:56:49;;;;;;;;;4.00;4.00;;;;;;;;5140223;27;21486;-84
2022/02/13 08:59:14;;;;;;;;;6.33;4.00;;;;;;;;5142797;27;21455;-78
2022/02/13 09:01:40;;;;;;;;;8.33;7.00;;;;;;;;5149065;27;8840;-76
2022/02/13 09:04:06;;;;;;;;;9.33;6.33;;;;;;;;5148817;27;8857;-80
2022/02/13 09:06:31;;;;;;;;;8.00;5.00;;;;;;;;5131925;27;13550;-80
2022/02/13 09:08:56;;;;;;;;;7.00;7.00;;;;;;;;5122241;27;13801;-79
2022/02/13 09:11:22;;;;;;;;;6.33;6.33;;;;;;;;5140891;27;8848;-77
2022/02/13 09:13:47;;;;;;;;;4.00;4.00;;;;;;;;5141210;27;11304;-78
2022/02/13 09:16:13;;;;;;;;;4.33;4.33;;;;;;;;5140462;27;11763;-84
2022/02/13 09:18:38;;;;;;;;;4.67;4.67;;;;;;;;5121511;27;12176;-80
2022/02/13 09:21:04;;;;;;;;;5.00;4.00;;;;;;;;5145739;27;8840;-78
2022/02/13 09:23:29;;;;;;;;;4.67;4.67;;;;;;;;5126041;27;14052;-86
2022/02/13 09:25:54;;;;;;;;;5.67;5.67;;;;;;;;5120827;27;11613;-86
2022/02/13 09:28:20;;;;;;;;;4.67;4.00;;;;;;;;5122008;27;9079;-79
2022/02/13 09:30:47;;;;;;;;;6.33;4.33;;;;;;;;5139628;27;11359;-76
2022/02/13 09:33:13;;;;;;;;;6.33;5.00;;;;;;;;5140290;27;12067;-78
2022/02/13 09:35:38;;;;;;;;;7.33;4.67;;;;;;;;5121470;27;9233;-74
2022/02/13 09:38:03;;;;;;;;;13.33;12.67;;;;;;;;5140633;27;11301;-74
2022/02/13 09:40:33;;;;;;;;;7.00;5.67;;;;;;;;5139890;27;23538;-75
2022/02/13 09:43:02;;;;;;;;;7.67;6.33;;;;;;;;5141243;27;22716;-76
2022/02/13 09:45:28;;;;;;;;;4.67;4.00;;;;;;;;5120923;27;10396;-75
2022/02/13 09:48:03;;;;;;;;;7.00;3.33;;;;;;;;5140647;27;11458;-76
2022/02/13 09:50:46;;;;;;;;;6.33;5.00;;;;;;;;5121806;27;11506;-76
2022/02/13 09:53:16;;;;;;;;;6.00;2.00;;;;;;;;5139907;27;12285;-73
2022/02/13 09:55:41;;;;;;;;;2.00;2.00;;;;;;;;5151910;27;11424;-76
2022/02/13 10:01:30;;;;;;;;;;;;;;;;;;;;;
2022/02/13 10:03:56;;;;;;;;;5.00;2.50;;;;;;;;5139216;27;42283;-81
2022/02/13 10:06:23;;;;;;;;;8.50;4.75;;;;;;;;5139731;27;11620;-83
2022/02/13 10:08:51;;;;;;;;;2.00;2.00;;;;;;;;5120819;27;13621;-80
2022/02/13 10:11:28;;;;;;;;;3.00;3.00;;;;;;;;5120821;27;13544;-75
2022/02/13 10:14:12;;;;;;;;;7.75;7.75;;;;;;;;5139255;27;11383;-75
2022/02/13 10:16:45;;;;;;;;;5.00;5.00;;;;;;;;5139230;27;12705;-75
2022/02/13 10:19:11;;;;;;;;;4.75;4.25;;;;;;;;5139550;27;11956;-74
2022/02/13 10:21:38;;;;;;;;;5.75;5.75;;;;;;;;5139251;27;11738;-75
2022/02/13 10:24:15;;;;;;;;;5.00;5.00;;;;;;;;5120787;27;13588;-75
2022/02/13 10:26:44;;;;;;;;;7.50;5.25;;;;;;;;5121207;27;11447;-74
2022/02/13 10:29:11;;;;;;;;;6.00;5.00;;;;;;;;5139866;27;12938;-77
2022/02/13 10:31:36;;;;;;;;;6.00;4.00;;;;;;;;5139815;27;11502;-74
2022/02/13 10:34:02;;;;;;;;;5.25;4.25;;;;;;;;5148281;27;11421;-74
2022/02/13 10:36:28;;;;;;;;;7.00;3.25;;;;;;;;5150365;27;11352;-74
2022/02/13 10:38:53;;;;;;;;;2.25;2.00;;;;;;;;5142410;27;10262;-76
2022/02/13 10:41:23;;;;;;;;;1.25;1.25;;;;;;;;5157361;27;11812;-76
2022/02/13 10:43:54;;;;;;;;;4.50;4.50;;;;;;;;5141255;27;12117;-75
2022/02/13 10:46:20;;;;;;;;;4.50;3.50;;;;;;;;5140874;27;13979;-76
2022/02/13 10:48:45;;;;;;;;;7.00;3.00;;;;;;;;5159934;27;11477;-76
2022/02/13 10:51:12;;;;;;;;;5.25;4.50;;;;;;;;5158688;27;11562;-77
2022/02/13 10:53:37;;;;;;;;;5.00;2.25;;;;;;;;5160075;27;12309;-75
2022/02/13 10:56:03;;;;;;;;;2.00;2.00;;;;;;;;5160373;27;12123;-77
2022/02/13 10:58:30;;;;;;;;;6.00;5.00;;;;;;;;5160219;27;11353;-81
2022/02/13 11:00:58;;;;;;;;;5.00;5.00;;;;;;;;5144129;27;8815;-76
2022/02/13 11:03:25;;;;;;;;;3.75;3.75;;;;;;;;5157742;27;11406;-79
2022/02/13 11:05:51;;;;;;;;;6.00;6.00;;;;;;;;5160559;27;12375;-78
2022/02/13 11:08:20;;;;;;;;;8.00;5.50;;;;;;;;5160103;27;11852;-77
2022/02/13 11:10:54;;;;;;;;;4.00;4.00;;;;;;;;5160027;27;12262;-78
2022/02/13 11:13:30;;;;;;;;;3.00;3.00;;;;;;;;5141254;27;13280;-79
2022/02/13 11:15:56;;;;;;;;;4.00;2.75;;;;;;;;5142226;27;11372;-80
2022/02/13 11:18:32;;;;;;;;;2.00;2.00;;;;;;;;5162501;27;11712;-82
2022/02/13 11:20:58;;;;;;;;;2.00;2.00;;;;;;;;5163282;27;11789;-81
2022/02/13 11:23:27;;;;;;;;;3.00;3.00;;;;;;;;5161372;27;10437;-76
2022/02/13 11:25:57;;;;;;;;;2.00;2.00;;;;;;;;5142351;27;10771;-80
2022/02/13 11:28:29;;;;;;;;;1.50;1.50;;;;;;;;5160393;27;10368;-78
2022/02/13 11:30:56;;;;;;;;;1.25;1.25;;;;;;;;5160551;27;11378;-75
2022/02/13 11:33:28;;;;;;;;;2.50;2.50;;;;;;;;5160021;27;10163;-77
2022/02/13 11:35:57;;;;;;;;;1.00;1.00;;;;;;;;5157129;27;11458;-76
2022/02/13 11:38:40;;;;;;;;;3.25;3.00;;;;;;;;5130707;27;11426;-78
2022/02/13 11:41:06;;;;;;;;;3.00;1.75;;;;;;;;5131340;27;10812;-77
2022/02/13 11:43:59;;;;;;;;;3.00;1.00;;;;;;;;5144481;27;11693;-73
2022/02/13 11:46:27;;;;;;;;;3.00;2.00;;;;;;;;5034989;28;12396;-76
2022/02/13 11:49:15;;;;;;;;;2.25;1.00;;;;;;;;5019745;28;11205;-76
2022/02/13 11:51:47;;;;;;;;;41.50;33.50;;;;;;;;5038934;28;12248;-73
2022/02/13 11:54:31;;;;;;;;;56.00;45.50;;;;;;;;5038128;28;22609;-75
2022/02/13 11:57:05;;;;;;;;;2.00;2.00;;;;;;;;5071441;27;12298;-75
2022/02/13 11:59:51;;;;;;;;;5.50;5.50;;;;;;;;5142084;27;22693;-73
2022/02/13 12:02:16;;;;;;;;;2.50;2.50;;;;;;;;5141787;27;11459;-73
2022/02/13 12:05:17;;;;;;;;;1.75;1.75;;;;;;;;5142274;27;11352;-74
2022/02/13 12:07:43;;;;;;;;;1.00;1.00;;;;;;;;5021907;28;11652;-76
2022/02/13 12:10:27;;;;;;;;;2.00;1.50;;;;;;;;5038709;28;12214;-75
2022/02/13 12:13:03;;;;;;;;;2.00;1.50;;;;;;;;5038931;28;11734;-75
2022/02/13 12:15:28;;;;;;;;;1.00;1.00;;;;;;;;5038756;28;11396;-76
2022/02/13 12:18:03;;;;;;;;;2.75;1.00;;;;;;;;5038599;28;11681;-75
2022/02/13 12:20:28;;;;;;;;;1.00;1.00;;;;;;;;5038326;28;9443;-74
2022/02/13 12:23:00;;;;;;;;;1.00;1.00;;;;;;;;5114356;27;11481;-75
2022/02/13 12:25:29;;;;;;;;;2.50;1.25;;;;;;;;5123320;27;8833;-73
2022/02/13 12:27:54;;;;;;;;;4.00;1.25;;;;;;;;5142271;27;12691;-75
2022/02/13 12:30:22;;;;;;;;;78.33;59.33;;;;;;;;5141787;27;11459;-74
2022/02/13 12:32:47;;;;;;;;;84.67;61.00;;;;;;;;5123405;27;24719;-73
2022/02/13 12:35:13;;;;;;;;;3.67;2.00;;;;;;;;5142325;27;14413;-73
2022/02/13 12:37:43;;;;;;;;;35.50;33.00;;;;;;;;5141691;27;22821;-73
2022/02/13 12:40:29;;;;;;;;;5.75;5.00;;;;;;;;5141746;27;22717;-74
2022/02/13 12:42:56;;;;;;;;;12.00;10.00;;;;;;;;5141044;27;22769;-73
2022/02/13 12:45:23;;;;;;;;;5.75;2.25;;;;;;;;5142405;27;24117;-73
2022/02/13 12:47:53;;;;;;;;;3.00;2.00;;;;;;;;5141835;27;23527;-74
2022/02/13 12:50:20;;;;;;;;;6.00;1.75;;;;;;;;5123201;27;13561;-76
2022/02/13 12:52:49;;;;;;;;;2.00;2.00;;;;;;;;5141680;27;11556;-74
2022/02/13 12:55:15;;;;;;;;;2.50;2.50;;;;;;;;5142141;27;11612;-75
2022/02/13 12:57:41;;;;;;;;;3.00;1.75;;;;;;;;5142124;27;11411;-74
2022/02/13 13:00:14;;;;;;;;;1.00;1.00;;;;;;;;5142052;27;11615;-75
2022/02/13 13:02:39;;;;;;;;;1.75;1.25;;;;;;;;5141942;27;11403;-75
2022/02/13 13:05:21;;;;;;;;;2.75;2.00;;;;;;;;5141963;27;11441;-75
2022/02/13 13:07:47;;;;;;;;;2.00;1.00;;;;;;;;5122656;27;11421;-75
2022/02/13 13:10:20;;;;;;;;;2.00;1.75;;;;;;;;5142037;27;11501;-75
2022/02/13 13:13:05;;;;;;;;;2.00;2.00;;;;;;;;5141496;27;8770;-74
2022/02/13 13:15:31;;;;;;;;;2.00;1.00;;;;;;;;5142371;27;11399;-73
2022/02/13 13:17:57;;;;;;;;;1.75;1.75;;;;;;;;5123483;27;11422;-75
2022/02/13 13:20:23;;;;;;;;;1.75;1.75;;;;;;;;5141850;27;11877;-74
2022/02/13 13:23:08;;;;;;;;;1.25;1.25;;;;;;;;5141710;27;8920;-74
2022/02/13 13:25:33;;;;;;;;;0.00;0.00;;;;;;;;5141368;27;8793;-75
2022/02/13 13:28:06;;;;;;;;;2.00;2.00;;;;;;;;5141310;27;12621;-74
2022/02/13 13:30:31;;;;;;;;;1.00;1.00;;;;;;;;5141966;27;8770;-74
2022/02/13 13:33:00;;;;;;;;;3.00;1.75;;;;;;;;5141912;27;11376;-75
2022/02/13 13:35:28;;;;;;;;;2.00;2.00;;;;;;;;5142161;27;11907;-75
2022/02/13 13:37:53;;;;;;;;;2.00;2.00;;;;;;;;5122660;27;11421;-74
2022/02/13 13:40:23;;;;;;;;;2.00;1.50;;;;;;;;5140996;27;11496;-74
2022/02/13 13:42:51;;;;;;;;;2.00;2.00;;;;;;;;5141569;27;9035;-74
2022/02/13 13:45:37;;;;;;;;;2.75;1.00;;;;;;;;5141142;27;11369;-74
2022/02/13 13:48:03;;;;;;;;;2.00;2.00;;;;;;;;5141150;27;11459;-75
2022/02/13 13:50:41;;;;;;;;;4.00;3.75;;;;;;;;5122330;27;11422;-74
2022/02/13 13:53:08;;;;;;;;;3.50;3.50;;;;;;;;5141284;27;11447;-75
2022/02/13 13:55:33;;;;;;;;;36.25;33.75;;;;;;;;5140976;27;11415;-74
2022/02/13 13:57:58;;;;;;;;;5.00;5.00;;;;;;;;5121250;27;23095;-76
2022/02/13 14:00:24;;;;;;;;;5.00;5.00;;;;;;;;5139905;27;22402;-75
2022/02/13 14:03:00;;;;;;;;;5.50;5.50;;;;;;;;5140779;27;8790;-74
2022/02/13 14:05:26;;;;;;;;;4.75;4.00;;;;;;;;5140762;27;11426;-71
2022/02/13 14:07:52;;;;;;;;;5.00;5.00;;;;;;;;5141414;27;11407;-73
2022/02/13 14:10:17;;;;;;;;;11.25;9.75;;;;;;;;5140179;27;11405;-74
2022/02/13 14:12:43;;;;;;;;;10.25;9.25;;;;;;;;5121700;27;24583;-76
2022/02/13 14:15:09;;;;;;;;;8.75;5.00;;;;;;;;5140549;27;9497;-75
2022/02/13 14:17:34;;;;;;;;;4.00;4.00;;;;;;;;5121398;27;23020;-74
2022/02/13 14:19:59;;;;;;;;;5.00;5.00;;;;;;;;5140122;27;10355;-73
2022/02/13 14:22:28;;;;;;;;;5.00;4.00;;;;;;;;5138893;27;8821;-76
2022/02/13 14:24:53;;;;;;;;;4.50;4.50;;;;;;;;5141082;27;8843;-77
2022/02/13 14:27:18;;;;;;;;;5.00;5.00;;;;;;;;5143523;27;11738;-74
2022/02/13 14:29:44;;;;;;;;;3.00;3.00;;;;;;;;5151822;27;11447;-75
2022/02/13 14:32:09;;;;;;;;;5.00;4.75;;;;;;;;5133091;27;10657;-74
2022/02/13 14:34:41;;;;;;;;;8.75;6.00;;;;;;;;5132247;27;11999;-74
2022/02/13 14:37:07;;;;;;;;;4.75;4.75;;;;;;;;5149239;27;11398;-73
2022/02/13 14:39:33;;;;;;;;;4.00;3.75;;;;;;;;5149508;27;11477;-73
2022/02/13 14:41:58;;;;;;;;;5.00;5.00;;;;;;;;5150616;27;11429;-74
2022/02/13 14:44:24;;;;;;;;;10.00;8.50;;;;;;;;5148866;27;11900;-75
2022/02/13 14:46:49;;;;;;;;;46.00;37.33;;;;;;;;5150548;27;21375;-75
2022/02/13 14:49:14;;;;;;;;;61.67;48.33;;;;;;;;5120467;27;24621;-75
2022/02/13 14:51:40;;;;;;;;;30.00;27.75;;;;;;;;5139613;27;13295;-75
2022/02/13 14:54:05;;;;;;;;;21.25;20.00;;;;;;;;5139171;27;12216;-75
2022/02/13 14:56:30;;;;;;;;;51.00;41.00;;;;;;;;5119993;27;15451;-73
2022/02/13 14:58:55;;;;;;;;;21.75;20.75;;;;;;;;5138606;27;12408;-74
2022/02/13 15:01:21;;;;;;;;;18.50;16.25;;;;;;;;5138408;27;13350;-74
2022/02/13 15:03:46;;;;;;;;;17.50;16.00;;;;;;;;5138660;27;12300;-73
2022/02/13 15:06:12;;;;;;;;;10.75;10.00;;;;;;;;5121653;27;13239;-76
2022/02/13 15:08:38;;;;;;;;;6.00;6.00;;;;;;;;5120731;27;12439;-74
2022/02/13 15:11:03;;;;;;;;;8.25;8.25;;;;;;;;5141942;27;22853;-75
2022/02/13 15:13:29;;;;;;;;;9.25;8.00;;;;;;;;5131505;27;13804;-77
2022/02/13 15:15:55;;;;;;;;;8.50;8.50;;;;;;;;5149222;27;11572;-76
2022/02/13 15:18:22;;;;;;;;;9.00;8.00;;;;;;;;5148157;27;11426;-75
2022/02/13 15:20:47;;;;;;;;;6.50;6.00;;;;;;;;5147592;27;11494;-77
2022/02/13 15:23:13;;;;;;;;;10.50;6.75;;;;;;;;5146174;27;11400;-76
2022/02/13 15:25:38;;;;;;;;;5.25;4.50;;;;;;;;5143026;27;21746;-76
2022/02/13 15:28:03;;;;;;;;;8.00;8.00;;;;;;;;5142896;27;21894;-75
2022/02/13 15:30:29;;;;;;;;;6.75;6.50;;;;;;;;5123652;27;13228;-77
2022/02/13 15:32:54;;;;;;;;;4.25;4.00;;;;;;;;5129985;27;13287;-76
2022/02/13 15:35:20;;;;;;;;;7.50;5.00;;;;;;;;5151387;27;11685;-76
2022/02/13 15:37:45;;;;;;;;;4.75;4.00;;;;;;;;5154168;27;10481;-75
2022/02/13 15:40:11;;;;;;;;;6.25;5.00;;;;;;;;5154221;27;10926;-76
2022/02/13 15:42:38;;;;;;;;;8.00;6.00;;;;;;;;5133252;27;10083;-75
2022/02/13 15:45:06;;;;;;;;;4.00;4.00;;;;;;;;5153222;27;10935;-78
2022/02/13 15:47:31;;;;;;;;;6.50;5.50;;;;;;;;5131370;27;11477;-75
2022/02/13 15:49:56;;;;;;;;;8.00;6.00;;;;;;;;5151499;27;11438;-80
2022/02/13 15:52:24;;;;;;;;;6.50;5.00;;;;;;;;5130438;27;12894;-78
2022/02/13 15:54:49;;;;;;;;;4.50;3.25;;;;;;;;5135353;27;10729;-78
2022/02/13 15:57:16;;;;;;;;;7.00;5.75;;;;;;;;5133087;27;12055;-78
2022/02/13 15:59:43;;;;;;;;;8.00;6.00;;;;;;;;5154302;27;10731;-79
2022/02/13 16:02:09;;;;;;;;;8.75;5.00;;;;;;;;5153542;27;11496;-78
2022/02/13 16:04:34;;;;;;;;;7.00;5.00;;;;;;;;5132511;27;12180;-73
2022/02/13 16:07:00;;;;;;;;;5.75;5.00;;;;;;;;5132160;27;11434;-73
2022/02/13 16:09:25;;;;;;;;;8.00;6.00;;;;;;;;5152518;27;8808;-73
2022/02/13 16:11:50;;;;;;;;;8.00;8.00;;;;;;;;5131608;27;10760;-75
2022/02/13 16:14:16;;;;;;;;;6.00;6.00;;;;;;;;5152934;27;8899;-76
2022/02/13 16:16:45;;;;;;;;;2.25;2.25;;;;;;;;5152189;27;8805;-74
2022/02/13 16:19:12;;;;;;;;;5.00;5.00;;;;;;;;5151298;27;11442;-74
2022/02/13 16:22:01;;;;;;;;;8.00;7.50;;;;;;;;5153451;27;11552;-74
2022/02/13 16:24:26;;;;;;;;;8.00;8.00;;;;;;;;5121383;27;11523;-74
2022/02/13 16:26:52;;;;;;;;;5.50;5.50;;;;;;;;5138532;27;11507;-74
2022/02/13 16:29:28;;;;;;;;;5.75;5.75;;;;;;;;5162133;27;11549;-75
2022/02/13 16:31:54;;;;;;;;;10.00;5.00;;;;;;;;5161623;27;9627;-73
2022/02/13 16:34:19;;;;;;;;;7.25;6.00;;;;;;;;5159939;27;21656;-74
2022/02/13 16:36:45;;;;;;;;;6.00;6.00;;;;;;;;5161658;27;21579;-74
2022/02/13 16:39:13;;;;;;;;;6.00;6.00;;;;;;;;5142295;27;11749;-75
2022/02/13 16:41:39;;;;;;;;;6.50;5.75;;;;;;;;5161644;27;8811;-73
2022/02/13 16:44:05;;;;;;;;;10.50;8.00;;;;;;;;5162194;27;11400;-74
2022/02/13 16:46:31;;;;;;;;;8.00;7.50;;;;;;;;5161399;27;22694;-73
2022/02/13 16:48:56;;;;;;;;;8.75;8.75;;;;;;;;5161181;27;23287;-73
2022/02/13 16:51:22;;;;;;;;;9.50;9.00;;;;;;;;5162757;27;10523;-74
2022/02/13 16:53:51;;;;;;;;;10.25;9.75;;;;;;;;5162324;27;11480;-74
2022/02/13 16:57:18;;;;;;;;;10.75;10.75;;;;;;;;5085889;27;3532707;-73
2022/02/13 16:59:43;;;;;;;;;16.50;16.50;;;;;;;;5198638;27;22256;-73
2022/02/13 17:02:08;;;;;;;;;16.00;14.75;;;;;;;;5199207;27;11687;-80
2022/02/13 17:04:34;;;;;;;;;19.00;18.00;;;;;;;;5179210;27;10691;-73
2022/02/13 17:06:59;;;;;;;;;16.75;12.50;;;;;;;;5180087;27;11392;-74
2022/02/13 17:09:26;;;;;;;;;15.25;13.25;;;;;;;;5199053;27;12002;-74
2022/02/13 17:11:51;;;;;;;;;15.75;14.00;;;;;;;;5179107;27;14288;-73
2022/02/13 17:14:17;;;;;;;;;7.75;7.75;;;;;;;;5199033;27;11589;-74
2022/02/13 17:16:42;;;;;;;;;17.50;16.00;;;;;;;;5198428;27;22332;-73
2022/02/13 17:19:07;;;;;;;;;13.75;13.00;;;;;;;;5188972;27;22302;-74
2022/02/13 17:21:33;;;;;;;;;13.25;11.25;;;;;;;;5185150;27;10701;-72
2022/02/13 17:23:58;;;;;;;;;14.75;13.25;;;;;;;;5168382;27;13721;-73
2022/02/13 17:26:26;;;;;;;;;13.25;13.00;;;;;;;;5166613;27;11868;-72
2022/02/13 17:28:53;;;;;;;;;19.50;15.00;;;;;;;;5186502;27;11542;-71
2022/02/13 17:31:18;;;;;;;;;16.00;15.00;;;;;;;;5187624;27;11454;-72
2022/02/13 17:34:09;;;;;;;;;19.25;19.25;;;;;;;;5184563;27;11564;-73
2022/02/13 17:36:35;;;;;;;;;19.25;18.25;;;;;;;;5071027;28;13598;-73
2022/02/13 17:39:03;;;;;;;;;23.75;21.25;;;;;;;;5078749;28;12300;-74
2022/02/13 17:41:29;;;;;;;;;16.00;15.00;;;;;;;;5079884;28;11607;-76
2022/02/13 17:43:54;;;;;;;;;14.75;14.00;;;;;;;;5063026;28;15271;-76
2022/02/13 17:46:20;;;;;;;;;20.25;18.25;;;;;;;;5061163;28;12497;-75
2022/02/13 17:48:48;;;;;;;;;21.25;16.00;;;;;;;;5078432;28;13880;-77
2022/02/13 17:51:13;;;;;;;;;12.25;9.00;;;;;;;;5078854;28;11463;-78
2022/02/13 17:53:41;;;;;;;;;14.50;13.75;;;;;;;;5079398;28;22717;-77
2022/02/13 17:56:09;;;;;;;;;14.75;10.00;;;;;;;;5078079;28;21763;-76
2022/02/13 17:58:35;;;;;;;;;12.25;11.75;;;;;;;;5056280;28;11692;-77
2022/02/13 18:01:00;;;;;;;;;10.50;10.50;;;;;;;;5070968;28;12515;-77
2022/02/13 18:03:26;;;;;;;;;14.75;14.75;;;;;;;;5069562;28;11528;-78
2022/02/13 18:05:53;;;;;;;;;20.00;16.00;;;;;;;;5070950;28;11655;-76
2022/02/13 18:08:18;;;;;;;;;14.75;13.00;;;;;;;;5042426;28;14057;-78
2022/02/13 18:10:44;;;;;;;;;15.25;14.00;;;;;;;;5058111;28;12429;-75
2022/02/13 18:13:10;;;;;;;;;14.00;13.50;;;;;;;;5082754;27;10012;-75
2022/02/13 18:15:35;;;;;;;;;13.75;13.75;;;;;;;;5162221;27;11577;-77
2022/02/13 18:18:05;;;;;;;;;18.00;14.50;;;;;;;;5142961;27;13663;-77
2022/02/13 18:20:32;;;;;;;;;15.50;13.50;;;;;;;;5143769;27;13509;-77
2022/02/13 18:22:57;;;;;;;;;21.75;20.50;;;;;;;;5170162;27;11452;-75
2022/02/13 18:25:23;;;;;;;;;13.75;13.75;;;;;;;;5170430;27;12305;-77
2022/02/13 18:27:48;;;;;;;;;17.50;15.50;;;;;;;;5171435;27;14602;-77
2022/02/13 18:30:15;;;;;;;;;15.00;13.25;;;;;;;;5169327;27;11591;-77
2022/02/13 18:32:44;;;;;;;;;15.00;15.00;;;;;;;;5171069;27;11463;-78
2022/02/13 18:35:10;;;;;;;;;11.00;8.75;;;;;;;;5150047;27;11474;-77
2022/02/13 18:37:35;;;;;;;;;8.50;8.50;;;;;;;;5152583;27;21669;-75
2022/02/13 18:40:02;;;;;;;;;10.25;8.75;;;;;;;;5170403;27;22516;-73
2022/02/13 18:42:27;;;;;;;;;14.75;11.50;;;;;;;;5172475;27;21728;-73
2022/02/13 18:44:53;;;;;;;;;10.50;10.50;;;;;;;;5181415;27;21540;-73
2022/02/13 18:47:18;;;;;;;;;15.50;12.25;;;;;;;;5180633;27;11572;-74
2022/02/13 18:49:43;;;;;;;;;10.50;9.00;;;;;;;;5182877;27;11362;-73
2022/02/13 18:52:09;;;;;;;;;13.75;12.00;;;;;;;;5182127;27;21395;-73
2022/02/13 18:54:39;;;;;;;;;10.50;10.50;;;;;;;;5181752;27;21529;-72
2022/02/13 18:57:05;;;;;;;;;11.00;9.25;;;;;;;;5162344;27;12954;-74
2022/02/13 18:59:30;;;;;;;;;18.25;11.00;;;;;;;;5162618;27;21637;-74
2022/02/13 19:01:55;;;;;;;;;12.25;10.75;;;;;;;;5181062;27;21486;-73
2022/02/13 19:04:21;;;;;;;;;16.50;10.50;;;;;;;;5172409;27;11362;-72
2022/02/13 19:06:47;;;;;;;;;8.75;7.00;;;;;;;;5152727;27;11663;-73
2022/02/13 19:09:14;;;;;;;;;13.50;10.50;;;;;;;;5165776;27;22602;-73
2022/02/13 19:11:39;;;;;;;;;7.50;7.00;;;;;;;;5160175;27;22798;-72
2022/02/13 19:14:05;;;;;;;;;11.50;9.75;;;;;;;;5173646;27;22245;-73
2022/02/13 19:16:30;;;;;;;;;14.25;10.75;;;;;;;;5181191;27;21475;-72
2022/02/13 19:18:56;;;;;;;;;12.00;10.00;;;;;;;;5180835;27;21707;-71
2022/02/13 19:21:21;;;;;;;;;10.75;9.00;;;;;;;;5182000;27;11377;-70
2022/02/13 19:23:48;;;;;;;;;13.50;12.25;;;;;;;;5181956;27;23144;-72
2022/02/13 19:28:57;;;;;;;;;11.50;9.75;;;;;;;;5181778;27;11446;-72
2022/02/13 19:31:23;;;;;;;;;11.00;10.00;;;;;;;;5162290;27;23466;-73
2022/02/13 19:33:48;;;;;;;;;7.00;7.00;;;;;;;;5181368;27;21391;-73
2022/02/13 19:36:13;;;;;;;;;11.00;9.50;;;;;;;;5161944;27;23060;-73
2022/02/13 19:38:39;;;;;;;;;14.00;10.75;;;;;;;;5181437;27;21977;-75
2022/02/13 19:41:04;;;;;;;;;13.00;9.25;;;;;;;;5181526;27;21392;-75
2022/02/13 19:43:30;;;;;;;;;10.25;10.25;;;;;;;;5176629;27;21472;-71
2022/02/13 19:45:58;;;;;;;;;13.25;11.50;;;;;;;;5180464;27;21917;-72
2022/02/13 19:48:23;;;;;;;;;13.00;9.75;;;;;;;;5182011;27;13296;-71
2022/02/13 19:50:51;;;;;;;;;11.50;9.50;;;;;;;;5181348;27;21330;-72
2022/02/13 19:53:17;;;;;;;;;10.00;9.00;;;;;;;;5177411;27;10539;-71
2022/02/13 19:55:42;;;;;;;;;10.25;10.00;;;;;;;;5160336;27;11458;-71
2022/02/13 19:58:07;;;;;;;;;11.75;11.00;;;;;;;;5160163;27;22572;-72
2022/02/13 20:00:35;;;;;;;;;10.50;10.00;;;;;;;;5161008;27;9736;-73
2022/02/13 20:03:01;;;;;;;;;12.00;9.25;;;;;;;;5160290;27;10558;-72
2022/02/13 20:05:28;;;;;;;;;9.00;9.00;;;;;;;;5159917;27;21494;-73
2022/02/13 20:07:56;;;;;;;;;7.50;7.50;;;;;;;;5160236;27;21424;-73
2022/02/13 20:10:21;;;;;;;;;8.25;5.50;;;;;;;;5161274;27;11775;-73
2022/02/13 20:12:46;;;;;;;;;10.75;9.50;;;;;;;;5141780;27;12310;-73
2022/02/13 20:15:12;;;;;;;;;10.50;10.00;;;;;;;;5160065;27;21572;-73
2022/02/13 20:17:40;;;;;;;;;9.00;9.00;;;;;;;;5160422;27;22562;-73
2022/02/13 20:20:08;;;;;;;;;11.00;9.50;;;;;;;;5159756;27;22345;-73
2022/02/13 20:22:34;;;;;;;;;10.50;9.25;;;;;;;;5140184;27;21589;-73
2022/02/13 20:25:01;;;;;;;;;12.25;9.75;;;;;;;;5159508;27;11465;-74
2022/02/13 20:27:27;;;;;;;;;10.25;10.25;;;;;;;;5160418;27;10439;-73
2022/02/13 20:29:52;;;;;;;;;10.75;9.25;;;;;;;;5159800;27;22011;-73
2022/02/13 20:32:19;;;;;;;;;6.25;5.25;;;;;;;;5141530;27;23637;-72
2022/02/13 20:34:45;;;;;;;;;10.00;7.25;;;;;;;;5172128;27;21789;-74
2022/02/13 20:37:11;;;;;;;;;7.25;7.25;;;;;;;;5179950;27;21395;-74
2022/02/13 20:39:36;;;;;;;;;11.50;9.00;;;;;;;;5161641;27;16578;-72
2022/02/13 20:42:02;;;;;;;;;9.00;9.00;;;;;;;;5180812;27;21471;-74
2022/02/13 20:44:27;;;;;;;;;8.25;7.00;;;;;;;;5181151;27;16201;-74
2022/02/13 20:46:53;;;;;;;;;10.25;9.00;;;;;;;;5180767;27;10274;-74
2022/02/13 20:49:18;;;;;;;;;9.00;9.00;;;;;;;;5180853;27;21389;-73
2022/02/13 20:51:43;;;;;;;;;10.00;7.25;;;;;;;;5180573;27;16761;-74
2022/02/13 20:54:09;;;;;;;;;10.50;7.25;;;;;;;;5180734;27;22419;-74
2022/02/13 20:56:34;;;;;;;;;15.00;9.50;;;;;;;;5180009;27;8802;-75
2022/02/13 20:59:00;;;;;;;;;12.00;12.00;;;;;;;;5180493;27;10350;-74
2022/02/13 21:01:25;;;;;;;;;6.00;6.00;;;;;;;;5180144;27;23189;-74
2022/02/13 21:03:50;;;;;;;;;16.00;13.00;;;;;;;;5179491;27;24252;-74
2022/02/13 21:06:16;;;;;;;;;12.25;12.25;;;;;;;;5179908;27;24976;-74
2022/02/13 21:08:41;;;;;;;;;12.00;12.00;;;;;;;;5180154;27;11442;-75
2022/02/13 21:11:06;;;;;;;;;10.00;7.00;;;;;;;;5180684;27;9466;-75
2022/02/13 21:13:32;;;;;;;;;13.50;11.00;;;;;;;;5179491;27;21377;-74
2022/02/13 21:15:57;;;;;;;;;14.75;13.50;;;;;;;;5176403;27;21692;-73
2022/02/13 21:18:23;;;;;;;;;14.75;12.75;;;;;;;;5178353;27;11673;-73
2022/02/13 21:20:49;;;;;;;;;13.75;11.25;;;;;;;;5180909;27;8841;-73
2022/02/13 21:23:15;;;;;;;;;10.25;9.00;;;;;;;;5161285;27;12506;-73
2022/02/13 21:25:40;;;;;;;;;13.00;10.00;;;;;;;;5179523;27;22038;-72
2022/02/13 21:28:08;;;;;;;;;9.25;9.00;;;;;;;;5180486;27;21662;-73
2022/02/13 21:30:36;;;;;;;;;9.00;9.00;;;;;;;;5180493;27;22240;-73
2022/02/13 21:33:04;;;;;;;;;10.50;10.00;;;;;;;;5181412;27;11505;-73
2022/02/13 21:35:29;;;;;;;;;13.00;12.00;;;;;;;;5179708;27;22815;-73
2022/02/13 21:37:56;;;;;;;;;12.75;10.00;;;;;;;;5180263;27;11877;-73
2022/02/13 21:40:22;;;;;;;;;14.50;11.25;;;;;;;;5181282;27;10464;-73
2022/02/13 21:42:48;;;;;;;;;13.00;11.25;;;;;;;;5182608;27;11657;-72
2022/02/13 21:45:13;;;;;;;;;9.00;9.00;;;;;;;;5184152;27;11424;-73